Terminal Aerodrome Forecast
Issued by NWS

Home | Current Version | Previous Version | Text Only | Print | Product List | Glossary On
Versions: 1 2 3 4 5 6 7 8 9 10 11 12 13 14 15 16 17 18 19
000
FTUS42 KFFC 020500
TAFRYY
TAF
KRYY 020520Z 0206/0306 09007KT P6SM SCT015 SCT150 BKN250
     FM020700 09007KT P6SM BKN012
     FM020900 09007KT P6SM VCSH OVC008
      TEMPO 0212/0216 5SM -SHRA SCT008 BKN030
     FM021700 02005KT P6SM VCSH SCT025 BKN035
     FM030200 VRB03KT P6SM SCT035 BKN100
      AMD NOT SKED TIL 021200=

USA.gov is the U.S. government's official web portal to all federal, state and local government web resources and services.